createdAt,value
2023-01-28T00:01:20.355Z,26.65
2023-01-28T00:06:42.417Z,26.33
2023-01-28T00:12:04.524Z,27.65
2023-01-28T00:17:26.470Z,26.15
2023-01-28T00:22:51.085Z,27.10
2023-01-28T00:28:13.848Z,28.30
2023-01-28T00:33:36.922Z,25.27
2023-01-28T00:38:59.606Z,25.42
2023-01-28T00:44:21.480Z,27.20
2023-01-28T00:49:43.320Z,24.88
2023-01-28T00:55:05.695Z,26.63
2023-01-28T01:00:27.590Z,26.33
2023-01-28T01:05:49.441Z,25.73
2023-01-28T01:11:11.801Z,27.02
2023-01-28T01:16:33.714Z,27.45
2023-01-28T01:21:57.051Z,26.80
2023-01-28T01:27:19.091Z,26.98
2023-01-28T01:32:40.955Z,24.52
2023-01-28T01:38:02.835Z,24.80
2023-01-28T01:43:24.756Z,25.30
2023-01-28T01:48:46.931Z,23.35
2023-01-28T01:54:09.080Z,23.63
2023-01-28T01:59:34.040Z,24.58
2023-01-28T02:04:55.970Z,23.65
2023-01-28T02:10:18.683Z,22.48
2023-01-28T02:15:40.892Z,23.98
2023-01-28T02:21:21.395Z,23.33
2023-01-28T02:26:50.307Z,21.83
2023-01-28T02:32:25.406Z,24.52
2023-01-28T02:37:54.016Z,23.05
2023-01-28T02:43:15.851Z,24.45
2023-01-28T02:48:37.786Z,21.67
2023-01-28T02:54:07.693Z,22.15
2023-01-28T02:59:42.471Z,21.73
2023-01-28T03:05:21.309Z,20.58
2023-01-28T03:10:43.190Z,21.05
2023-01-28T03:16:05.174Z,20.13
2023-01-28T03:21:37.060Z,19.45
2023-01-28T03:27:24.438Z,20.23
2023-01-28T03:32:46.625Z,18.65
2023-01-28T03:38:09.951Z,18.33
2023-01-28T03:43:32.453Z,19.85
2023-01-28T03:48:54.292Z,19.35
2023-01-28T03:54:16.132Z,18.30
2023-01-28T03:59:37.960Z,17.63
2023-01-28T04:04:59.839Z,18.42
2023-01-28T04:10:22.257Z,18.15
2023-01-28T04:15:44.607Z,17.88
2023-01-28T04:21:06.545Z,16.30
2023-01-28T04:26:28.821Z,17.63
2023-01-28T04:31:50.731Z,16.60
2023-01-28T04:37:12.697Z,17.10
2023-01-28T04:42:34.609Z,16.00
2023-01-28T04:47:56.855Z,17.67
2023-01-28T04:53:18.966Z,17.05
2023-01-28T04:58:40.810Z,16.70
2023-01-28T05:04:02.846Z,16.25
2023-01-28T05:09:24.760Z,16.52
2023-01-28T05:14:46.601Z,17.35
2023-01-28T05:20:09.234Z,17.00
2023-01-28T05:25:31.081Z,16.10
2023-01-28T05:30:52.985Z,17.65
2023-01-28T05:36:15.013Z,17.20
2023-01-28T05:41:36.840Z,16.10
2023-01-28T05:46:58.714Z,19.55
2023-01-28T05:52:20.577Z,17.65
2023-01-28T05:57:42.528Z,18.45
2023-01-28T06:03:04.563Z,18.38
2023-01-28T06:08:26.445Z,18.42
2023-01-28T06:13:48.380Z,18.48
2023-01-28T06:19:10.356Z,17.00
2023-01-28T06:24:32.196Z,18.63
2023-01-28T06:29:54.213Z,18.20
2023-01-28T06:35:16.129Z,18.45
2023-01-28T06:40:38.130Z,17.75
2023-01-28T06:46:00.403Z,17.88
2023-01-28T06:51:22.348Z,18.00
2023-01-28T06:56:44.303Z,17.10
2023-01-28T07:02:06.231Z,18.88
2023-01-28T07:07:28.204Z,19.48
2023-01-28T07:12:50.085Z,19.33
2023-01-28T07:18:12.052Z,19.38
2023-01-28T07:23:33.929Z,18.55
2023-01-28T07:28:55.877Z,17.88
2023-01-28T07:34:17.718Z,17.52
2023-01-28T07:39:39.650Z,19.58
2023-01-28T07:45:01.566Z,18.80
2023-01-28T07:50:24.076Z,19.08
2023-01-28T07:55:46.387Z,19.25
2023-01-28T08:01:08.356Z,19.40
2023-01-28T08:06:30.519Z,18.13
2023-01-28T08:11:53.296Z,18.75
2023-01-28T08:17:15.248Z,17.20
2023-01-28T08:22:37.184Z,17.35
2023-01-28T08:27:59.039Z,19.05
2023-01-28T08:33:20.949Z,16.48
2023-01-28T08:38:42.860Z,17.15
2023-01-28T08:44:04.880Z,15.63
2023-01-28T08:49:26.775Z,14.93
2023-01-28T08:54:48.677Z,14.20
2023-01-28T09:00:11.570Z,16.88
2023-01-28T09:05:37.674Z,16.13
2023-01-28T09:11:00.357Z,16.60
2023-01-28T09:16:22.236Z,16.98
2023-01-28T09:21:44.086Z,16.90
2023-01-28T09:27:06.600Z,17.30
2023-01-28T09:32:28.411Z,18.00
2023-01-28T09:37:50.965Z,17.67
2023-01-28T09:43:18.748Z,17.50
2023-01-28T09:48:45.168Z,17.88
2023-01-28T09:54:33.075Z,17.25
2023-01-28T09:59:54.975Z,18.25
2023-01-28T10:05:26.725Z,17.73
2023-01-28T10:10:55.919Z,16.73
2023-01-28T10:17:00.248Z,17.17
2023-01-28T10:22:28.933Z,19.02
2023-01-28T10:27:51.691Z,19.38
2023-01-28T10:33:16.239Z,18.13
2023-01-28T10:38:38.151Z,19.85
2023-01-28T10:44:00.016Z,19.25
2023-01-28T10:49:27.339Z,17.75
2023-01-28T10:55:02.888Z,18.42
2023-01-28T11:00:51.024Z,19.57
2023-01-28T11:06:28.043Z,17.90
2023-01-28T11:11:49.883Z,19.05
2023-01-28T11:17:18.667Z,20.20
2023-01-28T11:22:43.073Z,19.42
2023-01-28T11:28:20.022Z,18.10
2023-01-28T11:33:58.695Z,18.25
2023-01-28T11:39:25.231Z,15.95
2023-01-28T11:50:12.595Z,16.30
2023-01-28T11:55:41.835Z,16.98
2023-01-28T12:01:16.734Z,17.73
2023-01-28T12:06:57.500Z,17.25
2023-01-28T12:12:42.500Z,19.42
2023-01-28T12:18:07.421Z,17.90
2023-01-28T12:24:03.558Z,17.63
2023-01-28T12:35:26.756Z,14.80
2023-01-28T12:41:05.030Z,15.80
2023-01-28T12:46:38.699Z,14.40
2023-01-28T12:52:19.492Z,14.10
2023-01-28T12:57:41.868Z,13.32
2023-01-28T13:03:15.918Z,12.73
2023-01-28T13:08:37.827Z,11.98
2023-01-28T13:13:59.943Z,11.93
2023-01-28T13:19:24.721Z,12.15
2023-01-28T13:24:46.677Z,12.27
2023-01-28T13:30:26.976Z,12.00
2023-01-28T13:35:55.145Z,12.75
2023-01-28T13:41:16.988Z,12.55
2023-01-28T13:46:38.855Z,12.55
2023-01-28T13:52:33.319Z,11.75
2023-01-28T13:58:32.491Z,11.27
2023-01-28T14:04:20.241Z,12.75
2023-01-28T14:10:00.824Z,12.23
2023-01-28T14:15:28.705Z,11.93
2023-01-28T14:20:52.770Z,13.10
2023-01-28T14:26:38.739Z,13.52
2023-01-28T14:32:11.911Z,14.15
2023-01-28T14:37:33.869Z,14.90
2023-01-28T14:42:57.680Z,13.52
2023-01-28T14:48:50.737Z,14.50
2023-01-28T14:54:15.528Z,14.38
2023-01-28T14:59:46.952Z,15.40
2023-01-28T15:05:15.405Z,15.07
2023-01-28T15:10:38.337Z,16.85
2023-01-28T15:16:00.339Z,13.95
2023-01-28T15:21:24.337Z,13.30
2023-01-28T15:26:49.045Z,28.20
2023-01-28T15:32:29.694Z,14.68
2023-01-28T15:37:51.620Z,12.70
2023-01-28T15:43:23.206Z,13.63
2023-01-28T15:48:51.257Z,15.07
2023-01-28T15:54:13.203Z,15.43
2023-01-28T15:59:35.111Z,13.10
2023-01-28T16:05:02.412Z,13.27
2023-01-28T16:10:29.731Z,11.70
2023-01-28T16:15:55.097Z,11.00
2023-01-28T16:21:29.979Z,11.68
2023-01-28T16:27:02.857Z,11.90
2023-01-28T16:32:38.601Z,11.73
2023-01-28T16:38:00.417Z,9.33
2023-01-28T16:43:22.390Z,9.95
2023-01-28T16:48:44.385Z,9.90
2023-01-28T16:54:06.586Z,9.60
2023-01-28T16:59:28.423Z,9.13
2023-01-28T17:04:50.243Z,8.82
2023-01-28T17:10:12.296Z,7.82
2023-01-28T17:15:35.572Z,6.32
2023-01-28T17:21:02.741Z,6.25
2023-01-28T17:26:24.571Z,6.68
2023-01-28T17:31:46.559Z,5.63
2023-01-28T17:37:08.412Z,6.82
2023-01-28T17:42:30.255Z,6.63
2023-01-28T17:47:52.063Z,5.45
2023-01-28T17:53:14.064Z,4.45
2023-01-28T17:58:35.889Z,5.45
2023-01-28T18:03:58.911Z,6.00
2023-01-28T18:09:20.875Z,7.35
2023-01-28T18:14:42.679Z,5.03
2023-01-28T18:20:05.946Z,6.88
2023-01-28T18:25:27.762Z,7.18
2023-01-28T18:30:49.658Z,5.70
2023-01-28T18:36:11.655Z,5.28
2023-01-28T18:41:33.478Z,5.75
2023-01-28T18:46:56.022Z,4.68
2023-01-28T18:52:17.900Z,4.35
2023-01-28T18:57:39.700Z,4.57
2023-01-28T19:03:02.153Z,4.43
2023-01-28T19:08:23.968Z,6.75
2023-01-28T19:13:45.802Z,7.15
2023-01-28T19:19:07.707Z,7.22
2023-01-28T19:24:29.556Z,6.72
2023-01-28T19:29:51.505Z,8.27
2023-01-28T19:35:14.686Z,8.50
2023-01-28T19:40:36.817Z,8.27
2023-01-28T19:46:00.700Z,10.05
2023-01-28T19:51:23.003Z,8.00
2023-01-28T19:56:44.925Z,7.72
2023-01-28T20:02:07.064Z,5.80
2023-01-28T20:07:29.062Z,5.20
2023-01-28T20:12:50.914Z,5.18
2023-01-28T20:18:12.811Z,4.60
2023-01-28T20:23:34.702Z,4.85
2023-01-28T20:28:59.473Z,4.43
2023-01-28T20:34:21.422Z,4.25
2023-01-28T20:39:43.236Z,5.68
2023-01-28T20:45:05.623Z,5.25
2023-01-28T20:50:27.711Z,6.10
2023-01-28T20:55:57.571Z,6.88
2023-01-28T21:01:22.462Z,5.95
2023-01-28T21:06:44.458Z,6.43
2023-01-28T21:12:07.350Z,6.05
2023-01-28T21:17:30.073Z,5.90
2023-01-28T21:22:55.611Z,6.45
2023-01-28T21:28:18.986Z,6.20
2023-01-28T21:33:41.306Z,5.43
2023-01-28T21:39:05.002Z,5.00
2023-01-28T21:44:27.273Z,5.63
2023-01-28T21:49:49.101Z,5.47
2023-01-28T21:55:11.037Z,5.78
2023-01-28T22:00:33.312Z,5.75
2023-01-28T22:05:55.607Z,5.25
2023-01-28T22:11:17.802Z,5.57
2023-01-28T22:16:39.899Z,5.75
2023-01-28T22:22:01.849Z,6.20
2023-01-28T22:27:23.690Z,5.78
2023-01-28T22:32:45.537Z,5.18
2023-01-28T22:38:07.425Z,5.25
2023-01-28T22:43:29.286Z,6.03
2023-01-28T22:48:51.677Z,5.85
2023-01-28T22:54:13.592Z,5.40
2023-01-28T22:59:35.467Z,5.40
2023-01-28T23:04:57.327Z,5.00
2023-01-28T23:10:19.666Z,4.78
2023-01-28T23:15:41.694Z,5.40
2023-01-28T23:21:03.794Z,5.18
2023-01-28T23:26:25.697Z,4.97
2023-01-28T23:31:48.109Z,5.40
2023-01-28T23:37:11.381Z,5.00
2023-01-28T23:42:33.292Z,5.18
2023-01-28T23:47:55.173Z,4.60
2023-01-28T23:53:17.027Z,5.07
2023-01-28T23:58:43.646Z,5.18
